Time;durP1;ratioP1;P1;durP2;ratioP2;P2;SDS_P1;SDS_P2;PMS_P1;PMS_P2;Temp;Humidity;BMP_temperature;BMP_pressure;BME280_temperature;BME280_humidity;BME280_pressure;Samples;Min_cycle;Max_cycle;Signal;HPM_P1;HPM_P2
2022/07/11 00:03:45;;;;;;;7.10;3.97;;;;;;;14.09;94.00;102197.66;10530688;28;20040;-74
2022/07/11 00:08:45;;;;;;;5.72;3.92;;;;;;;14.07;94.51;102191.41;10473145;28;20044;-73
2022/07/11 00:13:46;;;;;;;9.73;4.75;;;;;;;14.05;94.74;102194.78;10532190;28;20042;-73
2022/07/11 00:18:46;;;;;;;11.10;5.05;;;;;;;13.96;94.10;102197.81;10517635;28;20047;-74
2022/07/11 00:23:47;;;;;;;7.15;5.15;;;;;;;13.74;93.84;102193.09;10541996;28;20085;-74
2022/07/11 00:28:47;;;;;;;8.38;5.97;;;;;;;13.50;94.96;102201.41;10491844;28;20438;-75
2022/07/11 00:33:48;;;;;;;15.10;6.40;;;;;;;13.33;96.19;102197.75;10513076;28;20106;-73
2022/07/11 00:38:49;;;;;;;8.88;6.50;;;;;;;13.13;96.49;102200.13;10498241;28;20112;-73
2022/07/11 00:43:57;;;;;;;9.50;7.07;;;;;;;13.01;97.64;102199.41;10502627;28;20039;-73
2022/07/11 00:48:58;;;;;;;10.43;7.15;;;;;;;12.83;97.54;102192.25;10506928;28;20081;-73
2022/07/11 00:53:58;;;;;;;11.93;6.47;;;;;;;12.72;98.51;102195.97;10532418;28;20541;-73
2022/07/11 00:58:59;;;;;;;10.48;7.03;;;;;;;12.59;99.19;102182.09;10465834;28;20036;-73
2022/07/11 01:04:00;;;;;;;9.98;7.50;;;;;;;12.56;100.00;102183.66;10521995;28;20035;-74
2022/07/11 01:09:01;;;;;;;8.73;5.60;;;;;;;12.46;100.00;102184.78;10552857;28;20499;-73
2022/07/11 01:14:01;;;;;;;12.30;7.50;;;;;;;12.40;100.00;102173.91;10501316;28;20063;-73
2022/07/11 01:19:02;;;;;;;13.88;7.82;;;;;;;12.30;100.00;102173.34;10525228;28;20059;-73
2022/07/11 01:24:03;;;;;;;11.38;7.72;;;;;;;12.21;100.00;102178.03;10493706;28;20035;-74
2022/07/11 01:29:11;;;;;;;14.60;10.07;;;;;;;12.17;100.00;102176.03;10535724;28;20371;-73
2022/07/11 01:34:11;;;;;;;10.60;8.15;;;;;;;12.08;100.00;102173.75;10505745;28;20044;-74
2022/07/11 01:39:12;;;;;;;15.15;8.23;;;;;;;11.99;100.00;102174.03;10527602;28;20116;-73
2022/07/11 01:44:12;;;;;;;13.15;8.40;;;;;;;11.84;100.00;102173.06;10506847;28;20440;-73
2022/07/11 01:49:13;;;;;;;11.32;8.40;;;;;;;11.70;100.00;102165.22;10525204;28;20063;-73
2022/07/11 01:54:13;;;;;;;14.60;9.82;;;;;;;11.64;100.00;102180.56;10546225;28;20432;-73
2022/07/11 01:59:14;;;;;;;17.42;10.38;;;;;;;11.69;100.00;102173.91;10514441;28;20111;-73
2022/07/11 02:04:14;;;;;;;16.70;10.82;;;;;;;11.66;100.00;102178.06;10546845;28;20036;-73
2022/07/11 02:09:15;;;;;;;20.13;9.35;;;;;;;11.60;100.00;102181.19;10551425;28;20063;-74
2022/07/11 02:14:15;;;;;;;15.35;9.98;;;;;;;11.53;100.00;102182.50;10548357;28;20043;-73
2022/07/11 02:19:16;;;;;;;23.23;13.38;;;;;;;11.49;100.00;102183.13;10555512;28;20035;-74
2022/07/11 02:24:16;;;;;;;23.73;17.30;;;;;;;11.48;100.00;102180.38;10528634;28;20037;-74
2022/07/11 02:29:22;;;;;;;20.67;15.05;;;;;;;11.45;100.00;102174.13;10480423;28;20040;-74
2022/07/11 02:34:22;;;;;;;20.35;13.80;;;;;;;11.43;100.00;102174.84;10535467;28;20041;-74
2022/07/11 02:39:23;;;;;;;24.08;13.73;;;;;;;11.42;100.00;102171.31;10551133;28;20048;-74
2022/07/11 02:44:23;;;;;;;23.25;15.15;;;;;;;11.35;100.00;102171.72;10511227;28;20498;-74
2022/07/11 02:49:24;;;;;;;22.05;14.15;;;;;;;11.28;100.00;102173.06;10495805;28;21252;-73
2022/07/11 02:54:24;;;;;;;20.70;14.93;;;;;;;11.22;100.00;102169.09;10558642;28;20123;-74
2022/07/11 02:59:25;;;;;;;20.00;13.50;;;;;;;11.19;100.00;102169.81;10516206;28;20036;-74
2022/07/11 03:04:25;;;;;;;25.10;15.85;;;;;;;11.12;100.00;102173.72;10548889;28;20052;-73
2022/07/11 03:09:26;;;;;;;28.73;17.13;;;;;;;11.11;100.00;102173.66;10511649;28;20043;-73
2022/07/11 03:14:26;;;;;;;27.30;17.25;;;;;;;11.09;100.00;102172.63;10486962;28;20040;-74
2022/07/11 03:19:27;;;;;;;25.35;16.92;;;;;;;11.05;100.00;102182.00;10513366;28;20036;-73
2022/07/11 03:24:28;;;;;;;29.40;19.50;;;;;;;11.06;100.00;102178.56;10532524;28;20039;-74
2022/07/11 03:29:28;;;;;;;28.75;18.80;;;;;;;11.16;100.00;102180.09;10545418;28;20054;-74
2022/07/11 03:34:29;;;;;;;25.98;18.55;;;;;;;11.23;100.00;102187.56;10510357;28;20445;-74
2022/07/11 03:39:29;;;;;;;26.48;18.17;;;;;;;11.35;100.00;102178.69;10565064;28;20063;-74
2022/07/11 03:44:30;;;;;;;24.23;17.30;;;;;;;11.54;100.00;102180.78;10555911;28;20059;-73
2022/07/11 03:49:30;;;;;;;27.42;19.98;;;;;;;11.70;100.00;102185.31;10542748;28;20552;-74
2022/07/11 03:54:30;;;;;;;27.00;17.60;;;;;;;11.90;100.00;102189.19;10561343;28;20192;-76
2022/07/11 03:59:31;;;;;;;26.40;18.13;;;;;;;12.07;100.00;102182.44;10529162;28;20506;-74
2022/07/11 04:04:32;;;;;;;30.48;17.45;;;;;;;12.24;100.00;102190.44;10551693;28;20035;-74
2022/07/11 04:09:32;;;;;;;27.95;17.95;;;;;;;12.40;100.00;102192.28;10568139;28;20050;-74
2022/07/11 04:14:33;;;;;;;27.83;19.80;;;;;;;12.54;100.00;102201.03;10522658;28;20104;-75
2022/07/11 04:19:33;;;;;;;26.13;16.77;;;;;;;12.70;100.00;102192.34;10538150;28;20098;-74
2022/07/11 04:24:34;;;;;;;26.13;16.25;;;;;;;12.88;100.00;102195.19;10531393;28;20060;-74
2022/07/11 04:29:34;;;;;;;21.25;13.85;;;;;;;13.01;100.00;102183.66;10530593;28;20033;-74
2022/07/11 04:34:35;;;;;;;19.52;15.00;;;;;;;13.16;100.00;102192.44;10536596;28;20038;-74
2022/07/11 04:39:36;;;;;;;23.25;15.98;;;;;;;13.36;100.00;102190.06;10528169;28;20036;-74
2022/07/11 04:44:36;;;;;;;21.77;14.18;;;;;;;13.53;100.00;102191.06;10529607;28;20097;-74
2022/07/11 04:49:37;;;;;;;20.75;12.93;;;;;;;13.64;100.00;102189.94;10534517;28;20036;-74
2022/07/11 04:54:38;;;;;;;16.63;11.70;;;;;;;13.72;100.00;102187.72;10508242;28;20360;-75
2022/07/11 04:59:38;;;;;;;18.35;10.65;;;;;;;13.75;100.00;102195.78;10530892;28;20067;-74
2022/07/11 05:04:39;;;;;;;15.27;10.90;;;;;;;13.85;100.00;102196.31;10526454;28;20471;-74
2022/07/11 05:09:39;;;;;;;18.75;12.90;;;;;;;13.94;100.00;102195.09;10501988;28;20046;-74
2022/07/11 05:14:40;;;;;;;17.73;11.48;;;;;;;14.07;100.00;102208.94;10489329;28;20193;-75
2022/07/11 05:19:41;;;;;;;18.15;14.35;;;;;;;14.19;100.00;102206.97;10505068;28;20124;-75
2022/07/11 05:24:41;;;;;;;19.45;12.80;;;;;;;14.32;100.00;102205.88;10525608;28;20044;-74
2022/07/11 05:29:42;;;;;;;17.50;13.75;;;;;;;14.48;100.00;102206.72;10492371;28;20118;-75
2022/07/11 05:34:43;;;;;;;15.88;12.20;;;;;;;14.61;100.00;102214.44;10559415;28;20039;-75
2022/07/11 05:39:43;;;;;;;18.08;12.00;;;;;;;14.82;100.00;102212.06;10565157;28;20118;-76
2022/07/11 05:44:44;;;;;;;19.42;12.10;;;;;;;15.01;98.17;102215.66;10507034;28;20226;-74
2022/07/11 05:49:44;;;;;;;19.05;11.70;;;;;;;15.21;97.17;102215.75;10516417;28;20093;-74
2022/07/11 05:54:45;;;;;;;14.63;11.20;;;;;;;15.24;96.57;102222.06;10542350;28;20035;-74
2022/07/11 05:59:46;;;;;;;13.43;11.15;;;;;;;15.24;96.99;102221.19;10538430;28;20039;-74
2022/07/11 06:04:47;;;;;;;24.37;14.63;;;;;;;15.31;96.45;102227.66;10536740;28;20043;-74
2022/07/11 06:09:50;;;;;;;12.98;9.90;;;;;;;15.44;96.36;102229.19;10514947;28;20090;-74
2022/07/11 06:14:51;;;;;;;17.95;11.60;;;;;;;15.64;96.11;102232.78;10521015;28;20052;-74
2022/07/11 06:19:51;;;;;;;12.60;9.73;;;;;;;16.00;91.99;102232.75;10511011;28;20036;-75
2022/07/11 06:24:52;;;;;;;14.60;10.55;;;;;;;16.20;90.61;102236.34;10548863;28;20502;-75
2022/07/11 06:29:52;;;;;;;17.48;9.07;;;;;;;16.43;89.14;102237.38;10556232;28;20052;-76
2022/07/11 06:34:53;;;;;;;15.32;9.63;;;;;;;16.49;88.15;102241.16;10531045;28;20036;-75
2022/07/11 06:39:53;;;;;;;11.43;7.68;;;;;;;16.49;88.37;102235.84;10550840;28;20040;-74
2022/07/11 06:44:54;;;;;;;12.27;7.88;;;;;;;16.50;88.95;102232.38;10515082;28;20036;-74
2022/07/11 06:49:55;;;;;;;17.00;11.35;;;;;;;16.40;89.11;102242.53;10469641;28;20032;-74
2022/07/11 06:54:55;;;;;;;12.55;8.38;;;;;;;16.61;89.66;102243.44;10507902;28;20112;-74
2022/07/11 06:59:56;;;;;;;13.52;8.68;;;;;;;16.64;88.24;102240.94;10568630;28;20043;-74
2022/07/11 07:04:58;;;;;;;15.88;9.10;;;;;;;16.74;87.48;102228.19;10511813;28;20032;-75
2022/07/11 07:09:58;;;;;;;12.85;7.15;;;;;;;16.98;86.86;102238.06;10490000;28;20139;-74
2022/07/11 07:14:59;;;;;;;12.48;6.07;;;;;;;17.23;85.74;102235.56;10535785;28;20036;-74
2022/07/11 07:20:00;;;;;;;8.48;6.40;;;;;;;17.40;85.24;102233.63;10528406;28;20182;-75
2022/07/11 07:25:01;;;;;;;8.10;6.25;;;;;;;17.57;84.09;102231.69;10529141;28;20189;-75
2022/07/11 07:30:02;;;;;;;9.30;5.22;;;;;;;17.80;82.21;102232.56;10528353;28;20058;-74
2022/07/11 07:35:03;;;;;;;7.27;4.97;;;;;;;17.82;81.71;102228.25;10528172;28;20035;-75
2022/07/11 07:40:04;;;;;;;9.30;4.38;;;;;;;17.66;81.62;102232.03;10561359;28;20122;-76
2022/07/11 07:45:05;;;;;;;4.72;3.65;;;;;;;17.43;83.35;102225.81;10543730;28;20468;-74
2022/07/11 07:50:06;;;;;;;13.38;5.40;;;;;;;17.62;81.77;102227.47;10544412;28;20032;-75
2022/07/11 07:55:07;;;;;;;10.13;5.03;;;;;;;17.59;83.13;102224.69;10526662;28;20032;-75
2022/07/11 08:05:27;;;;;;;6.53;4.13;;;;;;;17.93;83.37;102214.53;10525302;28;20690;-75
2022/07/11 08:10:28;;;;;;;11.73;5.30;;;;;;;18.19;80.14;102218.22;10488805;28;20119;-74
2022/07/11 08:15:28;;;;;;;10.68;4.20;;;;;;;18.02;79.70;102222.84;10484700;28;20353;-74
2022/07/11 08:20:29;;;;;;;10.60;5.78;;;;;;;17.73;81.31;102228.81;10484974;28;20083;-74
2022/07/11 08:25:30;;;;;;;8.10;5.00;;;;;;;17.62;82.87;102238.06;10485198;28;20037;-75
2022/07/11 08:30:31;;;;;;;7.00;4.43;;;;;;;17.43;82.96;102247.91;10493452;28;20043;-75
2022/07/11 08:35:31;;;;;;;8.50;5.80;;;;;;;17.16;86.04;102251.19;10559986;28;20071;-74
2022/07/11 08:40:32;;;;;;;10.00;5.78;;;;;;;17.23;86.39;102246.16;10565884;28;20118;-74
2022/07/11 08:45:32;;;;;;;5.00;3.60;;;;;;;17.54;83.95;102243.03;10527322;28;20040;-74
2022/07/11 08:50:33;;;;;;;7.47;4.18;;;;;;;17.86;83.26;102242.53;10490891;28;20086;-75
2022/07/11 08:55:33;;;;;;;5.78;3.67;;;;;;;18.08;82.73;102246.94;10525409;28;20501;-75
2022/07/11 09:00:35;;;;;;;8.82;4.45;;;;;;;17.85;82.47;102243.38;10507662;28;20067;-76
2022/07/11 09:05:35;;;;;;;8.13;5.20;;;;;;;17.49;84.20;102234.00;10515137;28;20066;-74
2022/07/11 09:10:41;;;;;;;8.90;5.28;;;;;;;17.21;85.97;102231.97;10487009;28;20549;-74
2022/07/11 09:15:47;;;;;;;9.30;6.60;;;;;;;17.25;87.51;102244.47;10483750;28;20036;-75
2022/07/11 09:26:14;;;;;;;7.60;5.15;;;;;;;17.31;86.10;102242.97;10496299;28;20033;-76
2022/07/11 09:31:17;;;;;;;11.18;5.93;;;;;;;17.26;85.92;102254.22;10478839;28;20433;-75
2022/07/11 09:36:17;;;;;;;;;;;;;;;17.16;87.19;102242.31;10513027;28;20035;-76
2022/07/11 09:41:17;;;;;;;11.02;5.45;;;;;;;17.01;87.29;102240.84;10497170;28;19916;-75
2022/07/11 09:46:24;;;;;;;8.73;4.38;;;;;;;17.06;86.85;102251.63;10512101;28;20032;-75
2022/07/11 09:51:25;;;;;;;10.15;7.05;;;;;;;17.18;87.08;102251.22;10495920;28;20558;-75
2022/07/11 09:56:41;;;;;;;11.43;7.10;;;;;;;17.27;87.68;102251.63;10494446;28;20171;-75
2022/07/11 10:01:42;;;;;;;12.13;6.43;;;;;;;17.42;87.45;102247.81;10496518;28;20511;-74
2022/07/11 10:06:42;;;;;;;9.20;6.90;;;;;;;17.83;86.34;102243.28;10557383;28;20042;-74
2022/07/11 10:11:43;;;;;;;8.90;4.88;;;;;;;18.10;84.76;102239.94;10545487;28;20040;-74
2022/07/11 10:17:09;;;;;;;6.07;4.20;;;;;;;18.12;83.86;102243.56;10502605;28;20145;-75
2022/07/11 10:22:37;;;;;;;9.35;5.35;;;;;;;17.87;84.96;102244.34;10552499;28;20443;-74
2022/07/11 10:28:00;;;;;;;7.63;5.68;;;;;;;18.23;85.06;102253.66;10524413;28;20083;-74
2022/07/11 10:33:01;;;;;;;11.68;5.55;;;;;;;18.51;82.57;102254.69;10538288;28;20043;-74
2022/07/11 10:38:04;;;;;;;6.90;5.50;;;;;;;18.58;82.87;102256.72;10554535;28;20028;-75
2022/07/11 10:43:05;;;;;;;6.70;5.03;;;;;;;19.22;79.20;102251.94;10553896;28;20054;-74
2022/07/11 10:48:11;;;;;;;11.90;5.05;;;;;;;19.92;76.59;102255.13;10570065;28;20452;-74
2022/07/11 10:53:22;;;;;;;5.93;4.93;;;;;;;20.04;74.35;102251.03;10554003;28;20067;-74
2022/07/11 10:58:31;;;;;;;7.90;5.63;;;;;;;19.52;75.92;102257.38;10552470;28;20036;-74
2022/07/11 11:03:31;;;;;;;8.13;5.28;;;;;;;18.99;77.24;102262.66;10547350;28;20040;-74
2022/07/11 11:08:35;;;;;;;11.65;6.78;;;;;;;18.46;79.64;102267.81;10569063;28;20114;-74
2022/07/11 11:13:41;;;;;;;6.07;5.15;;;;;;;18.22;80.60;102266.03;10558884;28;20400;-74
2022/07/11 11:18:42;;;;;;;7.60;5.93;;;;;;;18.20;81.37;102273.00;10541868;28;20135;-74
2022/07/11 11:23:47;;;;;;;24.00;6.65;;;;;;;18.76;79.38;102259.16;10519958;28;20043;-74
2022/07/11 11:28:59;;;;;;;7.47;4.72;;;;;;;19.60;77.08;102262.94;10565291;28;20085;-74
2022/07/11 11:34:01;;;;;;;7.97;5.05;;;;;;;20.39;73.41;102265.38;10570129;28;20551;-74
2022/07/11 11:39:01;;;;;;;9.05;5.43;;;;;;;21.00;71.84;102253.78;10551077;28;20123;-74
2022/07/11 11:44:03;;;;;;;9.77;5.47;;;;;;;21.47;68.25;102253.19;10568310;28;20532;-74
2022/07/11 11:49:04;;;;;;;7.65;4.80;;;;;;;22.17;66.05;102251.25;10565209;28;20089;-75
2022/07/11 11:54:04;;;;;;;7.27;3.70;;;;;;;22.33;65.73;102242.72;10536213;28;20479;-74
2022/07/11 11:59:07;;;;;;;5.17;3.67;;;;;;;22.10;64.21;102251.13;10544242;28;20032;-75
2022/07/11 12:04:10;;;;;;;4.43;3.63;;;;;;;22.23;65.22;102241.59;10482821;28;20139;-75
2022/07/11 12:09:10;;;;;;;5.88;3.35;;;;;;;22.72;62.24;102227.47;10485187;28;20033;-74
2022/07/11 12:14:12;;;;;;;6.77;3.63;;;;;;;23.18;60.87;102222.97;10491175;28;20548;-75
2022/07/11 12:19:22;;;;;;;6.15;2.67;;;;;;;24.27;58.68;102235.28;10473821;28;20040;-75
2022/07/11 12:24:26;;;;;;;8.48;4.13;;;;;;;24.26;54.68;102233.47;10465653;28;20041;-74
2022/07/11 12:29:27;;;;;;;4.82;3.28;;;;;;;23.84;55.84;102227.56;10448302;28;20119;-75
2022/07/11 12:34:33;;;;;;;10.10;4.43;;;;;;;23.25;60.82;102231.09;10448800;28;20029;-75
2022/07/11 12:39:38;;;;;;;7.05;5.30;;;;;;;22.64;62.08;102226.44;10483588;28;20268;-74
2022/07/11 12:44:58;;;;;;;5.30;4.18;;;;;;;22.23;63.51;102228.28;10483648;28;20051;-75
2022/07/11 12:49:58;;;;;;;6.22;3.20;;;;;;;22.59;62.37;102219.25;10467244;28;20115;-74
2022/07/11 12:55:02;;;;;;;8.73;6.23;;;;;;;23.37;59.49;102215.28;10464195;28;20037;-75
2022/07/11 13:00:16;;;;;;;4.95;3.15;;;;;;;23.90;59.08;102224.97;10494964;28;20040;-76
2022/07/11 13:05:17;;;;;;;6.13;4.68;;;;;;;23.56;58.62;102220.91;10446551;28;20094;-76
2022/07/11 13:10:24;;;;;;;5.53;3.77;;;;;;;22.77;60.38;102203.56;10481612;28;20094;-76
2022/07/11 13:15:25;;;;;;;5.50;2.65;;;;;;;23.05;59.98;102220.06;10452031;28;20091;-76
2022/07/11 13:20:27;;;;;;;4.60;3.20;;;;;;;23.01;55.88;102216.44;10455899;28;20064;-76
2022/07/11 13:25:29;;;;;;;4.97;2.90;;;;;;;22.79;58.39;102209.81;10462615;28;20044;-76
2022/07/11 13:30:31;;;;;;;4.68;3.58;;;;;;;22.41;60.72;102211.75;10450651;28;20036;-76
2022/07/11 13:35:31;;;;;;;11.00;5.17;;;;;;;22.02;60.61;102215.41;10442659;28;20128;-76
2022/07/11 13:40:33;;;;;;;5.63;3.23;;;;;;;21.49;64.89;102222.19;10452888;28;20056;-75
2022/07/11 13:45:33;;;;;;;;;;;;;;;21.76;64.12;102218.38;10479074;28;20032;-74
2022/07/11 13:50:34;;;;;;;6.30;3.23;;;;;;;22.14;62.43;102217.41;10488462;28;20319;-75
2022/07/11 13:55:34;;;;;;;6.60;4.30;;;;;;;21.77;63.84;102216.59;10460686;28;20354;-75
2022/07/11 14:00:35;;;;;;;4.63;3.30;;;;;;;21.55;64.26;102227.66;10490609;28;20128;-74
2022/07/11 14:05:35;;;;;;;4.30;3.27;;;;;;;21.80;65.06;102216.69;10508777;28;20036;-75
2022/07/11 14:10:36;;;;;;;6.07;3.40;;;;;;;21.81;63.67;102208.75;10505351;28;20051;-75
2022/07/11 14:15:38;;;;;;;5.13;3.40;;;;;;;22.05;62.13;102215.47;10505464;28;20525;-76
2022/07/11 14:20:38;;;;;;;4.38;3.40;;;;;;;22.37;60.49;102217.00;10511296;28;20040;-76
2022/07/11 14:25:41;;;;;;;6.03;3.37;;;;;;;22.54;60.61;102215.59;10518077;28;20461;-75
2022/07/11 14:30:41;;;;;;;5.68;3.35;;;;;;;22.53;60.09;102204.91;10522580;28;20067;-75
2022/07/11 14:35:42;;;;;;;4.13;2.97;;;;;;;22.21;62.21;102202.47;10498335;28;20131;-75
2022/07/11 14:40:43;;;;;;;5.67;3.93;;;;;;;22.32;61.22;102200.91;10534458;28;20040;-75
2022/07/11 14:45:43;;;;;;;5.87;3.93;;;;;;;22.30;60.41;102199.97;10493495;28;20036;-75
2022/07/11 14:50:44;;;;;;;4.50;3.10;;;;;;;22.47;61.32;102205.66;10484683;28;20046;-76
2022/07/11 14:55:44;;;;;;;5.60;3.93;;;;;;;22.82;58.88;102202.75;10540896;28;20040;-76
2022/07/11 15:00:45;;;;;;;4.77;2.77;;;;;;;22.64;61.43;102199.75;10521205;28;20399;-76
2022/07/11 15:05:45;;;;;;;3.90;2.93;;;;;;;23.12;59.60;102205.94;10518716;28;20617;-76
2022/07/11 15:16:05;;;;;;;3.78;2.63;;;;;;;23.23;59.26;102208.78;10517706;28;20035;-76
2022/07/11 15:21:05;;;;;;;5.93;4.00;;;;;;;23.44;58.78;102202.94;10532990;28;20127;-76
2022/07/11 15:26:06;;;;;;;7.10;5.33;;;;;;;23.54;59.70;102207.53;10533427;28;20063;-75
2022/07/11 15:31:06;;;;;;;5.83;4.33;;;;;;;23.71;59.94;102210.44;10507670;28;20127;-76
2022/07/11 15:36:07;;;;;;;7.07;4.70;;;;;;;24.14;57.80;102210.16;10507259;28;20442;-76
2022/07/11 15:41:07;;;;;;;4.73;2.73;;;;;;;24.77;53.22;102203.72;10509811;28;20119;-75
2022/07/11 15:46:08;;;;;;;5.03;4.30;;;;;;;24.32;55.79;102208.59;10516285;28;20123;-75
2022/07/11 15:51:09;;;;;;;7.00;5.23;;;;;;;24.08;56.87;102196.72;10506703;28;20044;-75
2022/07/11 15:56:09;;;;;;;8.67;5.30;;;;;;;23.39;58.51;102199.28;10544052;28;20112;-75
2022/07/11 16:01:10;;;;;;;7.97;5.93;;;;;;;22.65;58.78;102186.47;10551418;28;20082;-75
2022/07/11 16:06:10;;;;;;;7.57;4.30;;;;;;;21.99;59.82;102178.91;10535052;28;20043;-78
2022/07/11 16:11:11;;;;;;;6.07;4.10;;;;;;;21.32;63.00;102187.13;10508795;28;20107;-77
2022/07/11 16:16:11;;;;;;;6.30;4.10;;;;;;;20.97;65.49;102181.84;10514453;28;20502;-77
2022/07/11 16:21:12;;;;;;;5.78;4.32;;;;;;;21.11;65.57;102168.91;10521181;27;20082;-75
2022/07/11 16:26:14;;;;;;;5.47;3.57;;;;;;;21.24;62.07;102173.66;10544830;27;20503;-74
2022/07/11 16:31:15;;;;;;;6.68;4.15;;;;;;;21.23;63.95;102170.94;10531303;28;20035;-74
2022/07/11 16:36:23;;;;;;;5.20;3.80;;;;;;;21.24;63.15;102176.31;10540583;28;20119;-75
2022/07/11 16:46:46;;;;;;;3.58;2.58;;;;;;;20.97;63.12;102174.78;10566828;28;20043;-75
2022/07/11 16:51:46;;;;;;;4.13;2.70;;;;;;;20.97;64.13;102168.53;10531752;28;20032;-75
2022/07/11 16:56:47;;;;;;;3.90;2.75;;;;;;;20.91;62.00;102171.03;10511205;28;20028;-75
2022/07/11 17:01:47;;;;;;;2.93;2.07;;;;;;;20.88;61.25;102169.22;10503255;28;20044;-75
2022/07/11 17:06:48;;;;;;;8.43;5.53;;;;;;;20.64;62.86;102162.38;10529082;28;20044;-75
2022/07/11 17:11:50;;;;;;;3.17;2.13;;;;;;;20.41;62.80;102160.84;10543205;27;20040;-75
2022/07/11 17:16:51;;;;;;;3.67;2.45;;;;;;;20.31;63.38;102167.66;10526278;28;20109;-74
2022/07/11 17:21:51;;;;;;;3.80;2.87;;;;;;;20.10;63.95;102164.44;10522606;28;20035;-74
2022/07/11 17:26:52;;;;;;;3.35;2.35;;;;;;;19.96;64.32;102160.47;10547908;28;20491;-74
2022/07/11 17:31:52;;;;;;;3.58;2.17;;;;;;;19.95;65.02;102154.25;10528268;28;20077;-75
2022/07/11 17:36:53;;;;;;;3.28;2.95;;;;;;;19.90;64.77;102152.31;10550876;28;20492;-74
2022/07/11 17:41:54;;;;;;;3.55;2.30;;;;;;;19.74;65.23;102154.50;10542007;28;20138;-74
2022/07/11 17:46:54;;;;;;;2.05;1.65;;;;;;;19.51;66.45;102156.44;10552318;28;20080;-74
2022/07/11 17:51:55;;;;;;;3.10;2.22;;;;;;;19.38;69.11;102152.50;10538035;28;20060;-74
2022/07/11 17:56:56;;;;;;;2.25;1.27;;;;;;;19.30;67.12;102156.66;10513350;28;20033;-74
2022/07/11 18:01:57;;;;;;;4.32;1.70;;;;;;;19.24;72.69;102164.44;10515135;28;20040;-74
2022/07/11 18:06:58;;;;;;;5.63;1.88;;;;;;;18.99;74.47;102155.66;10514070;28;20475;-74
2022/07/11 18:12:00;;;;;;;5.43;1.80;;;;;;;18.82;75.57;102155.94;10533083;28;20143;-74
2022/07/11 18:17:01;;;;;;;1.77;1.42;;;;;;;18.55;76.27;102163.84;10548144;28;20039;-74
2022/07/11 18:22:02;;;;;;;2.95;1.67;;;;;;;18.30;76.88;102150.63;10533065;28;20039;-74
2022/07/11 18:27:04;;;;;;;3.78;1.88;;;;;;;18.14;77.44;102157.09;10530159;28;20446;-74
2022/07/11 18:32:05;;;;;;;3.65;1.70;;;;;;;17.98;79.59;102154.69;10531917;28;20039;-74
2022/07/11 18:37:05;;;;;;;3.70;1.50;;;;;;;17.75;80.26;102154.72;10529761;28;20120;-74
2022/07/11 18:42:06;;;;;;;1.77;1.60;;;;;;;17.60;81.57;102157.69;10530180;28;20074;-74
2022/07/11 18:47:06;;;;;;;4.07;1.83;;;;;;;17.48;83.03;102154.53;10524406;28;20032;-74
2022/07/11 18:52:07;;;;;;;4.53;1.92;;;;;;;17.24;84.72;102144.78;10495043;28;20089;-74
2022/07/11 18:57:09;;;;;;;2.95;2.17;;;;;;;17.10;85.89;102144.19;10530064;28;20046;-75
2022/07/11 19:02:09;;;;;;;;;;;;;;;16.95;87.53;102147.09;10529240;28;20047;-74
2022/07/11 19:07:10;;;;;;;4.43;1.90;;;;;;;16.77;89.35;102144.56;10530567;28;19916;-75
2022/07/11 19:12:11;;;;;;;2.35;1.95;;;;;;;16.62;91.16;102144.81;10563090;27;20766;-75
2022/07/11 19:17:11;;;;;;;2.97;2.05;;;;;;;16.48;92.17;102154.78;10562160;27;20055;-75
2022/07/11 19:22:13;;;;;;;3.80;1.80;;;;;;;16.37;93.42;102157.84;10528621;28;20054;-73
2022/07/11 19:27:13;;;;;;;6.88;3.80;;;;;;;16.26;93.70;102148.53;10511370;28;20043;-75
2022/07/11 19:32:14;;;;;;;2.22;1.63;;;;;;;16.15;93.49;102156.00;10530083;28;20124;-75
2022/07/11 19:37:15;;;;;;;2.75;1.92;;;;;;;15.90;93.38;102168.09;10529211;28;20137;-75
2022/07/11 19:42:17;;;;;;;2.67;1.75;;;;;;;15.69;93.37;102175.84;10510512;28;20097;-75
2022/07/11 19:47:17;;;;;;;4.20;2.40;;;;;;;15.50;94.87;102168.81;10526987;28;20535;-75
2022/07/11 19:52:18;;;;;;;3.45;2.47;;;;;;;15.39;95.50;102181.44;10543880;28;20040;-75
2022/07/11 19:57:24;;;;;;;4.15;2.55;;;;;;;15.27;96.05;102185.28;10509708;28;20036;-74
2022/07/11 20:02:25;;;;;;;2.80;2.10;;;;;;;15.14;96.63;102185.50;10527243;28;20118;-74
2022/07/11 20:07:26;;;;;;;4.07;2.88;;;;;;;15.02;97.30;102190.16;10509584;28;20121;-74
2022/07/11 20:12:27;;;;;;;4.68;3.08;;;;;;;14.83;97.54;102197.13;10508490;28;20064;-74
2022/07/11 20:17:28;;;;;;;4.95;3.28;;;;;;;14.65;98.04;102208.50;10535314;28;20097;-75
2022/07/11 20:22:28;;;;;;;7.50;5.15;;;;;;;14.64;99.41;102205.81;10551204;28;20038;-74
2022/07/11 20:27:29;;;;;;;3.78;2.72;;;;;;;14.46;98.94;102200.44;10523755;28;20035;-74
2022/07/11 20:32:30;;;;;;;4.25;3.13;;;;;;;14.30;99.67;102202.28;10521227;28;20462;-75
2022/07/11 20:37:30;;;;;;;4.50;2.72;;;;;;;14.29;100.00;102202.19;10540557;28;20368;-74
2022/07/11 20:42:31;;;;;;;12.85;4.78;;;;;;;14.25;100.00;102201.13;10507726;28;20372;-74
2022/07/11 20:47:31;;;;;;;4.13;2.95;;;;;;;14.14;100.00;102212.78;10532184;28;20125;-74
2022/07/11 20:52:32;;;;;;;9.98;7.57;;;;;;;14.07;100.00;102222.09;10549208;28;20031;-75
2022/07/11 20:57:33;;;;;;;38.35;27.98;;;;;;;14.06;100.00;102223.81;10505880;28;20120;-74
2022/07/11 21:02:34;;;;;;;11.35;8.15;;;;;;;14.01;100.00;102213.88;10520431;28;20996;-74
2022/07/11 21:07:34;;;;;;;5.13;4.00;;;;;;;13.90;100.00;102216.81;10540895;28;20071;-74
2022/07/11 21:12:34;;;;;;;5.38;3.15;;;;;;;13.78;100.00;102219.66;10507429;28;20043;-75
2022/07/11 21:17:35;;;;;;;4.43;3.40;;;;;;;13.64;100.00;102223.22;10522593;28;20336;-74
2022/07/11 21:22:36;;;;;;;10.70;7.00;;;;;;;13.48;100.00;102227.59;10504482;28;20036;-75
2022/07/11 21:27:36;;;;;;;8.20;6.57;;;;;;;13.35;100.00;102228.59;10532658;28;20046;-75
2022/07/11 21:32:37;;;;;;;6.38;4.47;;;;;;;13.26;100.00;102233.31;10530377;28;20082;-75
2022/07/11 21:37:37;;;;;;;5.47;3.95;;;;;;;13.17;100.00;102244.19;10541020;28;20044;-75
2022/07/11 21:42:38;;;;;;;8.45;4.40;;;;;;;13.13;100.00;102242.19;10524017;28;20036;-75
2022/07/11 21:47:38;;;;;;;6.00;4.47;;;;;;;13.15;100.00;102239.69;10532140;28;20535;-75
2022/07/11 21:52:39;;;;;;;5.50;4.10;;;;;;;13.06;100.00;102234.75;10532947;28;20028;-74
2022/07/11 21:57:39;;;;;;;5.72;4.63;;;;;;;12.98;100.00;102243.91;10546508;28;20356;-74
2022/07/11 22:02:41;;;;;;;6.50;4.32;;;;;;;13.05;100.00;102247.03;10561100;28;20088;-74
2022/07/11 22:07:41;;;;;;;16.05;6.07;;;;;;;13.13;100.00;102243.94;10506401;28;20048;-74
2022/07/11 22:12:42;;;;;;;5.78;4.43;;;;;;;13.11;100.00;102243.81;10508902;28;20127;-74
2022/07/11 22:17:42;;;;;;;5.82;3.95;;;;;;;13.12;100.00;102247.38;10533664;28;20047;-74
2022/07/11 22:22:43;;;;;;;6.35;4.95;;;;;;;13.09;100.00;102250.72;10518011;28;20502;-74
2022/07/11 22:27:43;;;;;;;5.97;4.40;;;;;;;13.04;100.00;102255.72;10542261;28;20127;-75
2022/07/11 22:32:44;;;;;;;7.05;4.93;;;;;;;12.96;100.00;102269.19;10542544;28;20555;-74
2022/07/11 22:37:44;;;;;;;6.88;5.03;;;;;;;12.88;100.00;102264.38;10535322;28;20066;-75
2022/07/11 22:48:04;;;;;;;6.05;5.15;;;;;;;12.75;100.00;102272.34;10531030;28;20044;-74
2022/07/11 22:53:05;;;;;;;7.55;4.50;;;;;;;12.70;100.00;102271.13;10528796;28;20122;-74
2022/07/11 22:58:06;;;;;;;10.75;5.57;;;;;;;12.72;100.00;102272.13;10553426;28;20505;-74
2022/07/11 23:03:06;;;;;;;7.85;5.35;;;;;;;12.67;100.00;102276.22;10529203;28;20039;-74
2022/07/11 23:08:07;;;;;;;6.22;4.63;;;;;;;12.65;100.00;102262.06;10470241;28;20090;-74
2022/07/11 23:13:07;;;;;;;6.15;5.20;;;;;;;12.50;100.00;102270.81;10505779;28;20047;-75
2022/07/11 23:18:08;;;;;;;6.97;5.57;;;;;;;12.38;100.00;102265.72;10536432;28;20040;-74
2022/07/11 23:23:09;;;;;;;7.30;6.00;;;;;;;12.26;100.00;102264.94;10549027;28;20035;-74